Time;durP1;ratioP1;P1;durP2;ratioP2;P2;SDS_P1;SDS_P2;PMS_P1;PMS_P2;Temp;Humidity;BMP_temperature;BMP_pressure;BME280_temperature;BME280_humidity;BME280_pressure;Samples;Min_cycle;Max_cycle;Signal;HPM_P1;HPM_P2
2023/11/06 00:02:04;;;;;;;0.60;0.60;;;;;;;8.63;76.70;97073.47;4968854;28;20046;-76
2023/11/06 00:04:30;;;;;;;0.60;0.60;;;;;;;8.54;76.81;97073.38;4966722;28;20129;-76
2023/11/06 00:06:55;;;;;;;0.63;0.63;;;;;;;8.55;77.33;97077.81;4968057;28;20102;-75
2023/11/06 00:09:21;;;;;;;0.60;0.60;;;;;;;8.51;77.73;97075.97;4970150;28;20038;-78
2023/11/06 00:11:47;;;;;;;0.70;0.70;;;;;;;8.61;77.66;97072.53;4970046;28;20034;-76
2023/11/06 00:14:13;;;;;;;0.63;0.63;;;;;;;8.52;78.48;97076.00;4971605;28;20042;-76
2023/11/06 00:16:38;;;;;;;0.60;0.60;;;;;;;8.48;78.75;97076.84;4971519;28;20130;-76
2023/11/06 00:19:05;;;;;;;0.60;0.60;;;;;;;8.39;78.54;97082.97;4968728;28;20035;-74
2023/11/06 00:21:31;;;;;;;0.70;0.70;;;;;;;8.56;77.73;97080.47;4965688;28;20052;-77
2023/11/06 00:23:56;;;;;;;0.60;0.60;;;;;;;8.65;77.22;97083.22;4968433;28;20047;-76
2023/11/06 00:26:22;;;;;;;0.70;0.70;;;;;;;8.72;77.40;97093.06;4966085;28;20047;-76
2023/11/06 00:28:53;;;;;;;0.60;0.60;;;;;;;8.80;76.89;97085.13;4969465;28;20133;-76
2023/11/06 00:31:19;;;;;;;0.60;0.60;;;;;;;8.88;76.18;97091.44;4962819;28;20516;-76
2023/11/06 00:33:45;;;;;;;0.60;0.60;;;;;;;8.90;76.13;97089.66;4969076;28;20049;-76
2023/11/06 00:36:23;;;;;;;0.60;0.60;;;;;;;8.98;75.85;97098.59;4963117;28;20409;-76
2023/11/06 00:38:49;;;;;;;0.60;0.60;;;;;;;9.07;75.73;97099.56;4966327;28;20050;-76
2023/11/06 00:41:15;;;;;;;0.60;0.60;;;;;;;9.14;75.25;97104.06;4965998;28;20516;-75
2023/11/06 00:43:41;;;;;;;0.60;0.60;;;;;;;9.15;75.07;97100.50;4966713;28;20042;-76
2023/11/06 00:46:06;;;;;;;0.60;0.60;;;;;;;9.07;75.56;97110.22;4961399;28;20145;-76
2023/11/06 00:48:33;;;;;;;0.57;0.57;;;;;;;9.00;75.82;97117.22;4975008;28;20035;-75
2023/11/06 00:50:59;;;;;;;0.70;0.70;;;;;;;9.06;75.96;97121.75;4959020;28;20117;-74
2023/11/06 00:53:25;;;;;;;0.60;0.60;;;;;;;8.93;76.25;97121.63;4971183;28;20035;-76
2023/11/06 00:55:52;;;;;;;0.60;0.60;;;;;;;8.90;76.91;97115.38;4967406;28;20050;-77
2023/11/06 00:58:18;;;;;;;0.60;0.60;;;;;;;8.79;77.47;97123.25;4966567;28;20468;-76
2023/11/06 01:00:43;;;;;;;0.60;0.60;;;;;;;8.92;76.42;97118.94;4968981;28;20104;-76
2023/11/06 01:03:10;;;;;;;0.60;0.60;;;;;;;8.99;76.46;97123.44;4969074;28;20046;-77
2023/11/06 01:05:37;;;;;;;0.60;0.60;;;;;;;9.08;76.57;97117.31;4970842;28;20160;-76
2023/11/06 01:08:04;;;;;;;0.70;0.70;;;;;;;8.91;77.28;97122.47;4970815;28;20039;-75
2023/11/06 01:10:33;;;;;;;0.50;0.50;;;;;;;9.00;76.78;97123.44;4969388;28;20043;-75
2023/11/06 01:13:00;;;;;;;0.60;0.60;;;;;;;9.04;76.65;97127.03;4965503;28;20061;-75
2023/11/06 01:15:26;;;;;;;0.60;0.60;;;;;;;9.16;75.92;97131.59;4968873;28;21536;-75
2023/11/06 01:17:52;;;;;;;0.70;0.70;;;;;;;9.14;76.33;97126.22;4958739;28;20034;-75
2023/11/06 01:20:18;;;;;;;0.60;0.60;;;;;;;9.03;76.59;97140.31;4959623;28;20480;-75
2023/11/06 01:22:43;;;;;;;0.60;0.60;;;;;;;9.08;76.92;97135.94;4969131;28;20121;-76
2023/11/06 01:25:09;;;;;;;0.60;0.60;;;;;;;9.12;76.31;97135.97;4965792;28;20176;-75
2023/11/06 01:27:35;;;;;;;0.60;0.60;;;;;;;9.04;77.13;97140.31;4969334;28;20134;-75
2023/11/06 01:30:03;;;;;;;0.57;0.57;;;;;;;9.11;76.83;97130.66;4957614;28;20049;-75
2023/11/06 01:32:28;;;;;;;0.70;0.70;;;;;;;9.09;76.70;97143.03;4969839;28;20042;-75
2023/11/06 01:34:54;;;;;;;0.60;0.60;;;;;;;9.09;76.91;97140.38;4960563;28;20113;-76
2023/11/06 01:37:20;;;;;;;0.57;0.57;;;;;;;9.04;77.41;97140.31;4966514;28;20468;-75
2023/11/06 01:39:46;;;;;;;0.63;0.63;;;;;;;8.98;77.08;97141.16;4970647;28;20532;-75
2023/11/06 01:42:11;;;;;;;0.60;0.60;;;;;;;8.97;77.33;97134.06;4970869;28;20038;-75
2023/11/06 01:44:37;;;;;;;0.60;0.60;;;;;;;8.96;77.36;97147.38;4966109;28;20050;-75
2023/11/06 01:47:05;;;;;;;0.60;0.60;;;;;;;9.13;76.57;97150.16;4963705;28;20035;-75
2023/11/06 01:49:31;;;;;;;0.70;0.70;;;;;;;9.02;76.97;97139.44;4964441;28;20126;-75
2023/11/06 01:51:57;;;;;;;0.60;0.60;;;;;;;9.04;76.99;97152.75;4964274;28;20043;-75
2023/11/06 01:54:23;;;;;;;0.60;0.60;;;;;;;8.88;77.70;97165.00;4969451;28;20592;-75
2023/11/06 01:56:49;;;;;;;0.60;0.60;;;;;;;8.92;77.46;97162.41;4970276;28;20046;-75
2023/11/06 01:59:15;;;;;;;0.70;0.70;;;;;;;8.81;77.70;97161.38;4968211;28;20096;-75
2023/11/06 02:01:45;;;;;;;0.70;0.70;;;;;;;8.86;77.72;97162.34;4955244;28;20126;-76
2023/11/06 02:04:12;;;;;;;0.60;0.60;;;;;;;8.83;77.94;97156.09;4980582;23;20054;-80
2023/11/06 02:06:39;;;;;;;0.60;0.60;;;;;;;8.97;76.85;97158.00;4983991;28;20051;-80
2023/11/06 02:09:05;;;;;;;0.60;0.60;;;;;;;8.89;76.28;97154.38;4983449;28;20096;-80
2023/11/06 02:11:30;;;;;;;0.60;0.60;;;;;;;8.61;77.92;97173.56;4983863;28;20046;-80
2023/11/06 02:13:56;;;;;;;0.60;0.60;;;;;;;8.59;77.65;97172.66;5001974;28;20038;-80
2023/11/06 02:16:22;;;;;;;0.60;0.60;;;;;;;8.49;78.16;97171.66;4984679;28;20094;-80
2023/11/06 02:18:47;;;;;;;0.60;0.60;;;;;;;8.40;78.60;97174.19;4987296;28;20473;-79
2023/11/06 02:21:13;;;;;;;0.70;0.70;;;;;;;8.42;78.83;97178.66;4985257;28;20030;-79
2023/11/06 02:23:39;;;;;;;0.60;0.60;;;;;;;8.30;79.37;97183.78;5000816;28;20534;-80
2023/11/06 02:26:07;;;;;;;0.70;0.70;;;;;;;8.43;78.69;97188.44;4986317;28;20034;-80
2023/11/06 02:28:33;;;;;;;0.60;0.60;;;;;;;8.58;77.64;97189.50;4984582;28;20173;-81
2023/11/06 02:30:58;;;;;;;0.60;0.60;;;;;;;8.71;76.79;97196.72;4986253;28;20034;-80
2023/11/06 02:33:24;;;;;;;0.60;0.60;;;;;;;8.89;75.85;97188.94;4987379;28;20162;-80
2023/11/06 02:35:49;;;;;;;0.70;0.70;;;;;;;8.93;75.70;97195.19;4987052;28;20646;-80
2023/11/06 02:38:15;;;;;;;0.63;0.63;;;;;;;8.95;75.39;97204.97;4987059;28;20060;-81
2023/11/06 02:40:41;;;;;;;0.60;0.60;;;;;;;8.94;75.79;97208.50;4984088;28;20045;-80
2023/11/06 02:43:06;;;;;;;0.60;0.60;;;;;;;8.89;75.78;97199.59;4983609;28;20270;-80
2023/11/06 02:45:32;;;;;;;0.60;0.60;;;;;;;8.81;75.84;97203.91;4984106;28;20039;-79
2023/11/06 02:47:57;;;;;;;0.60;0.60;;;;;;;8.88;75.86;97211.09;4986075;28;20093;-81
2023/11/06 02:50:23;;;;;;;0.60;0.60;;;;;;;8.78;76.50;97211.88;4986123;28;20424;-80
2023/11/06 02:52:48;;;;;;;0.60;0.60;;;;;;;8.91;75.79;97207.56;4969291;28;20083;-81
2023/11/06 02:55:14;;;;;;;0.60;0.60;;;;;;;8.81;76.13;97211.88;4989013;28;20046;-82
2023/11/06 02:57:40;;;;;;;0.60;0.60;;;;;;;8.61;77.18;97216.97;5006687;28;20066;-81
2023/11/06 03:00:11;;;;;;;0.60;0.60;;;;;;;8.71;77.38;97217.97;5000974;28;20053;-81
2023/11/06 03:02:37;;;;;;;0.60;0.60;;;;;;;8.81;76.04;97233.16;5003903;28;20056;-81
2023/11/06 03:05:03;;;;;;;0.70;0.70;;;;;;;8.84;75.95;97237.66;4994167;28;20408;-80
2023/11/06 03:07:30;;;;;;;0.70;0.70;;;;;;;8.84;75.84;97230.56;4984780;28;20373;-81
2023/11/06 03:09:56;;;;;;;0.70;0.70;;;;;;;8.70;76.72;97234.81;4971103;28;20137;-81
2023/11/06 03:12:22;;;;;;;0.68;0.68;;;;;;;8.71;76.23;97236.59;4984511;28;20507;-81
2023/11/06 03:14:47;;;;;;;0.60;0.60;;;;;;;8.66;76.29;97241.84;4995408;28;20042;-81
2023/11/06 03:17:13;;;;;;;0.70;0.70;;;;;;;8.69;76.35;97246.34;4984281;28;20872;-80
2023/11/06 03:19:38;;;;;;;0.70;0.70;;;;;;;8.59;76.60;97239.13;4985628;28;20053;-80
2023/11/06 03:22:04;;;;;;;0.65;0.65;;;;;;;8.65;76.36;97245.38;5001787;28;20693;-80
2023/11/06 03:24:30;;;;;;;0.70;0.70;;;;;;;8.70;76.21;97249.00;4980680;28;20050;-80
2023/11/06 03:26:55;;;;;;;0.63;0.63;;;;;;;8.59;76.38;97252.41;4995887;28;20496;-80
2023/11/06 03:29:21;;;;;;;0.68;0.68;;;;;;;8.53;76.81;97263.84;4982674;28;20118;-80
2023/11/06 03:31:46;;;;;;;0.60;0.60;;;;;;;8.39;77.47;97261.00;4983774;28;20038;-80
2023/11/06 03:34:12;;;;;;;0.70;0.70;;;;;;;8.34;78.09;97272.41;4984630;28;20089;-80
2023/11/06 03:36:42;;;;;;;0.65;0.65;;;;;;;8.53;77.19;97273.56;4983579;28;20050;-81
2023/11/06 03:39:08;;;;;;;0.60;0.60;;;;;;;8.47;77.13;97267.28;4984520;28;20124;-81
2023/11/06 03:41:34;;;;;;;0.68;0.68;;;;;;;8.36;77.66;97283.94;4982534;28;20045;-81
2023/11/06 03:44:00;;;;;;;0.60;0.60;;;;;;;8.35;77.96;97284.81;4985866;28;20031;-80
2023/11/06 03:46:26;;;;;;;0.60;0.60;;;;;;;8.23;78.51;97288.19;4982617;28;20050;-80
2023/11/06 03:48:51;;;;;;;0.60;0.60;;;;;;;8.48;77.35;97300.13;4980261;28;20046;-80
2023/11/06 03:51:17;;;;;;;0.60;0.60;;;;;;;8.58;76.96;97287.84;4998805;28;20109;-80
2023/11/06 03:53:42;;;;;;;0.60;0.60;;;;;;;8.66;76.41;97288.81;4968526;28;20075;-80
2023/11/06 03:56:09;;;;;;;0.60;0.60;;;;;;;8.83;75.91;97299.69;4985156;28;20042;-81
2023/11/06 03:58:35;;;;;;;0.65;0.65;;;;;;;8.84;75.84;97294.38;4984678;28;20038;-81
2023/11/06 04:01:01;;;;;;;0.60;0.60;;;;;;;8.88;75.74;97303.31;4982394;28;20053;-81
2023/11/06 04:03:26;;;;;;;0.60;0.60;;;;;;;9.05;75.34;97298.16;4983924;28;20047;-80
2023/11/06 04:05:52;;;;;;;0.70;0.70;;;;;;;9.03;75.21;97297.28;4986209;28;20527;-80
2023/11/06 04:08:18;;;;;;;0.60;0.60;;;;;;;8.96;75.47;97301.63;4985429;28;20519;-80
2023/11/06 04:10:43;;;;;;;0.60;0.60;;;;;;;9.04;75.18;97307.03;4979962;28;20046;-81
2023/11/06 04:13:10;;;;;;;0.60;0.60;;;;;;;9.06;75.30;97319.50;4984746;28;20042;-81
2023/11/06 04:15:35;;;;;;;0.60;0.60;;;;;;;8.95;75.59;97314.00;4969711;28;20034;-80
2023/11/06 04:18:01;;;;;;;0.60;0.60;;;;;;;8.90;76.09;97318.38;4985338;28;20030;-80
2023/11/06 04:20:26;;;;;;;0.60;0.60;;;;;;;8.87;76.36;97318.38;4982277;28;20643;-82
2023/11/06 04:22:52;;;;;;;0.60;0.60;;;;;;;9.02;75.20;97330.06;4985699;28;20046;-81
2023/11/06 04:25:17;;;;;;;0.60;0.60;;;;;;;8.99;75.33;97331.81;4981292;28;20042;-81
2023/11/06 04:27:43;;;;;;;0.60;0.60;;;;;;;8.97;75.51;97336.22;4983818;28;20027;-81
2023/11/06 04:30:09;;;;;;;0.60;0.60;;;;;;;8.97;75.47;97340.66;4982277;28;20496;-80
2023/11/06 04:32:34;;;;;;;0.68;0.68;;;;;;;9.10;74.37;97333.69;4982803;28;20054;-80
2023/11/06 04:35:00;;;;;;;0.60;0.60;;;;;;;9.08;74.97;97344.34;4981534;28;20038;-80
2023/11/06 04:37:25;;;;;;;0.60;0.60;;;;;;;9.20;74.24;97332.97;4979715;28;20743;-81
2023/11/06 04:39:51;;;;;;;0.70;0.70;;;;;;;9.13;74.76;97347.06;4984453;28;20089;-80
2023/11/06 04:42:18;;;;;;;0.60;0.60;;;;;;;9.22;74.35;97344.50;4980087;28;20139;-79
2023/11/06 04:44:43;;;;;;;0.70;0.70;;;;;;;9.17;74.57;97343.56;5000973;28;20117;-81
2023/11/06 04:47:09;;;;;;;0.70;0.70;;;;;;;9.17;74.47;97340.91;4984250;28;20045;-80
2023/11/06 04:49:34;;;;;;;0.60;0.60;;;;;;;9.08;75.45;97351.44;4981913;28;20081;-80
2023/11/06 04:52:00;;;;;;;0.60;0.60;;;;;;;8.87;76.98;97358.25;4980074;28;20481;-81
2023/11/06 04:54:25;;;;;;;0.70;0.70;;;;;;;8.72;77.60;97366.03;4982747;28;20081;-81
2023/11/06 04:56:51;;;;;;;0.70;0.70;;;;;;;8.48;79.35;97361.25;4985260;28;20640;-82
2023/11/06 04:59:17;;;;;;;0.65;0.65;;;;;;;8.44;79.18;97365.63;4984483;28;20380;-79
2023/11/06 05:01:43;;;;;;;0.60;0.60;;;;;;;8.28;80.33;97365.31;4982721;28;20654;-80
2023/11/06 05:04:09;;;;;;;0.70;0.70;;;;;;;8.16;81.26;97360.69;4997339;28;20038;-80
2023/11/06 05:06:35;;;;;;;0.70;0.70;;;;;;;7.97;80.85;97370.13;4996412;28;20040;-80
2023/11/06 05:09:00;;;;;;;0.60;0.60;;;;;;;7.87;81.97;97376.13;4984520;28;20034;-81
2023/11/06 05:11:26;;;;;;;0.70;0.70;;;;;;;7.86;81.38;97390.28;4981544;28;20042;-80
2023/11/06 05:13:54;;;;;;;0.60;0.60;;;;;;;7.91;81.16;97388.59;4984404;28;20042;-79
2023/11/06 05:16:20;;;;;;;0.70;0.70;;;;;;;8.00;80.87;97390.50;4983159;28;20038;-81
2023/11/06 05:18:46;;;;;;;0.70;0.70;;;;;;;8.11;80.49;97392.50;4983739;28;20046;-81
2023/11/06 05:21:11;;;;;;;0.60;0.60;;;;;;;8.11;80.42;97397.81;4983197;28;20507;-81
2023/11/06 05:23:37;;;;;;;0.60;0.60;;;;;;;8.29;80.39;97401.63;4982249;28;20050;-81
2023/11/06 05:26:04;;;;;;;0.70;0.70;;;;;;;8.21;80.61;97399.75;4984255;28;20038;-81
2023/11/06 05:28:30;;;;;;;0.70;0.70;;;;;;;8.28;80.34;97405.16;4981470;28;20068;-81
2023/11/06 05:30:56;;;;;;;0.70;0.70;;;;;;;8.22;79.83;97403.28;4995471;28;20488;-81
2023/11/06 05:33:21;;;;;;;0.70;0.70;;;;;;;8.23;80.05;97407.72;4980740;28;20048;-81
2023/11/06 05:35:47;;;;;;;0.60;0.60;;;;;;;8.22;80.12;97416.59;4982791;28;20042;-81
2023/11/06 05:38:12;;;;;;;0.60;0.60;;;;;;;8.09;80.73;97409.25;4982706;28;20038;-81
2023/11/06 05:40:38;;;;;;;0.68;0.68;;;;;;;7.99;80.09;97413.50;4981035;28;20047;-82
2023/11/06 05:43:03;;;;;;;0.70;0.70;;;;;;;8.11;79.91;97420.81;4979628;28;20100;-81
2023/11/06 05:45:29;;;;;;;0.70;0.70;;;;;;;8.23;79.50;97421.03;4983887;28;20030;-82
2023/11/06 05:47:55;;;;;;;0.70;0.70;;;;;;;8.10;79.77;97430.56;4968525;28;20045;-81
2023/11/06 05:50:20;;;;;;;0.70;0.70;;;;;;;7.93;80.24;97434.66;4981185;28;20069;-81
2023/11/06 05:52:46;;;;;;;0.60;0.60;;;;;;;7.84;80.62;97427.41;4982832;28;20050;-81
2023/11/06 05:55:11;;;;;;;0.60;0.60;;;;;;;7.97;79.92;97429.44;4983796;28;20758;-81
2023/11/06 05:57:37;;;;;;;0.65;0.65;;;;;;;7.72;81.10;97441.34;4984512;28;20077;-82
2023/11/06 06:00:03;;;;;;;0.60;0.60;;;;;;;8.03;79.90;97449.00;4983728;28;20046;-81
2023/11/06 06:02:37;;;;;;;0.70;0.70;;;;;;;7.89;80.23;97454.06;4990901;28;20093;-80
2023/11/06 06:05:04;;;;;;;0.68;0.68;;;;;;;7.95;79.91;97452.44;4991635;28;20042;-80
2023/11/06 06:07:30;;;;;;;0.70;0.70;;;;;;;8.04;79.12;97449.00;4986491;28;20047;-80
2023/11/06 06:09:55;;;;;;;0.60;0.60;;;;;;;7.83;79.96;97453.94;4983883;28;20030;-80
2023/11/06 06:12:21;;;;;;;0.70;0.70;;;;;;;7.79;80.22;97462.72;4983394;28;20026;-80
2023/11/06 06:14:46;;;;;;;0.80;0.80;;;;;;;8.03;79.20;97468.47;4982693;28;20042;-80
2023/11/06 06:17:12;;;;;;;0.70;0.70;;;;;;;7.93;79.56;97474.50;4983256;28;20022;-80
2023/11/06 06:19:37;;;;;;;0.70;0.70;;;;;;;7.95;79.48;97468.34;4983727;28;20077;-81
2023/11/06 06:22:03;;;;;;;0.80;0.80;;;;;;;7.78;79.93;97472.44;4983551;28;20031;-79
2023/11/06 06:24:28;;;;;;;0.70;0.70;;;;;;;7.61;80.72;97485.34;4981458;28;20798;-81
2023/11/06 06:26:54;;;;;;;0.70;0.70;;;;;;;7.46;81.21;97495.66;4981028;28;20053;-80
2023/11/06 06:29:19;;;;;;;0.70;0.70;;;;;;;7.65;80.65;97488.97;4986008;28;20392;-82
2023/11/06 06:31:45;;;;;;;0.70;0.70;;;;;;;7.51;81.31;97486.03;4980720;28;20085;-80
2023/11/06 06:34:11;;;;;;;0.70;0.70;;;;;;;7.60;80.86;97493.28;4978058;28;20597;-80
2023/11/06 06:36:37;;;;;;;0.70;0.70;;;;;;;7.84;80.06;97487.59;4978684;28;20046;-80
2023/11/06 06:39:05;;;;;;;0.70;0.70;;;;;;;7.90;79.83;97495.66;4983909;28;20113;-80
2023/11/06 06:41:30;;;;;;;0.77;0.77;;;;;;;8.09;78.73;97496.91;4966285;28;20040;-79
2023/11/06 06:43:56;;;;;;;0.60;0.60;;;;;;;8.16;78.46;97497.06;4981030;28;20418;-80
2023/11/06 06:46:21;;;;;;;0.70;0.70;;;;;;;8.24;78.06;97502.53;4979022;28;20042;-80
2023/11/06 06:48:48;;;;;;;0.70;0.70;;;;;;;8.05;79.05;97511.00;4978583;28;20140;-81
2023/11/06 06:51:13;;;;;;;0.70;0.70;;;;;;;8.06;78.81;97505.75;4981477;28;20405;-80
2023/11/06 06:53:39;;;;;;;0.70;0.70;;;;;;;8.03;78.84;97516.28;4985461;28;20038;-80
2023/11/06 06:56:05;;;;;;;0.70;0.70;;;;;;;7.79;79.75;97510.50;4992361;28;20451;-81
2023/11/06 06:58:30;;;;;;;0.70;0.70;;;;;;;7.63;80.53;97504.00;4984761;28;20126;-81
2023/11/06 07:00:56;;;;;;;0.70;0.70;;;;;;;7.49;80.84;97516.06;4964403;28;20059;-80
2023/11/06 07:03:21;;;;;;;0.70;0.70;;;;;;;7.61;80.61;97516.31;4959430;28;20047;-80
2023/11/06 07:05:47;;;;;;;0.70;0.70;;;;;;;7.79;79.38;97527.31;4983020;28;20042;-80
2023/11/06 07:08:13;;;;;;;0.60;0.60;;;;;;;7.89;79.73;97520.44;4983749;28;20046;-80
2023/11/06 07:10:38;;;;;;;0.70;0.70;;;;;;;8.15;78.13;97526.28;4983670;28;20046;-79
2023/11/06 07:13:04;;;;;;;0.70;0.70;;;;;;;8.62;75.94;97524.50;4983254;28;20030;-79
2023/11/06 07:15:29;;;;;;;0.70;0.70;;;;;;;8.87;74.94;97533.81;5000656;28;20043;-79
2023/11/06 07:17:59;;;;;;;0.70;0.70;;;;;;;8.97;74.29;97533.06;4986113;28;20042;-80
2023/11/06 07:20:24;;;;;;;0.70;0.70;;;;;;;9.21;73.10;97537.88;4988175;28;20034;-80
2023/11/06 07:22:50;;;;;;;0.70;0.70;;;;;;;9.55;71.79;97546.38;4986554;28;20042;-79
2023/11/06 07:25:16;;;;;;;0.60;0.60;;;;;;;9.83;71.34;97539.66;4987640;28;20408;-79
2023/11/06 07:27:43;;;;;;;0.60;0.60;;;;;;;9.83;70.92;97534.31;4970843;28;20393;-79
2023/11/06 07:30:10;;;;;;;0.63;0.63;;;;;;;10.01;69.98;97545.22;4987358;28;20042;-79
2023/11/06 07:32:36;;;;;;;0.70;0.70;;;;;;;10.61;68.29;97542.31;4988408;28;20066;-79
2023/11/06 07:35:02;;;;;;;0.50;0.50;;;;;;;11.03;67.07;97541.81;4969609;28;20042;-79
2023/11/06 07:37:29;;;;;;;0.50;0.50;;;;;;;10.55;69.05;97542.28;4988186;28;20039;-79
2023/11/06 07:39:55;;;;;;;0.60;0.60;;;;;;;10.69;67.42;97546.84;4985063;28;20110;-79
2023/11/06 07:42:20;;;;;;;0.50;0.50;;;;;;;10.47;68.25;97545.75;4989824;28;20054;-79
2023/11/06 07:44:46;;;;;;;0.50;0.50;;;;;;;10.14;69.35;97548.88;4986472;28;20042;-79
2023/11/06 07:47:13;;;;;;;0.50;0.50;;;;;;;10.70;67.49;97548.63;4987060;28;20483;-80
2023/11/06 07:49:39;;;;;;;0.60;0.60;;;;;;;11.02;66.72;97548.06;4985819;28;20038;-79
2023/11/06 07:52:09;;;;;;;0.50;0.50;;;;;;;10.71;67.49;97553.09;4986736;28;20483;-79
2023/11/06 07:54:39;;;;;;;0.52;0.52;;;;;;;11.20;66.02;97540.16;4986759;28;20038;-79
2023/11/06 07:57:04;;;;;;;0.60;0.60;;;;;;;11.80;64.26;97553.91;4984956;28;20097;-80
2023/11/06 07:59:31;;;;;;;0.60;0.60;;;;;;;11.97;63.86;97549.56;4970387;28;20039;-80
2023/11/06 08:01:59;;;;;;;0.50;0.50;;;;;;;12.46;62.02;97549.75;4987077;28;20046;-80
2023/11/06 08:04:25;;;;;;;0.50;0.50;;;;;;;12.07;63.07;97562.09;4987107;28;20046;-80
2023/11/06 08:06:50;;;;;;;0.40;0.40;;;;;;;12.46;61.32;97562.25;4988115;28;20397;-81
2023/11/06 08:09:16;;;;;;;0.40;0.40;;;;;;;12.42;61.24;97557.78;4986153;28;20086;-81
2023/11/06 08:11:41;;;;;;;0.40;0.40;;;;;;;13.07;59.89;97559.66;4985824;28;20038;-80
2023/11/06 08:14:07;;;;;;;0.40;0.40;;;;;;;12.48;61.44;97557.78;4987392;28;20038;-80
2023/11/06 08:16:34;;;;;;;0.40;0.40;;;;;;;12.84;61.02;97559.66;4986946;28;20038;-80
2023/11/06 08:18:59;;;;;;;0.40;0.40;;;;;;;13.59;58.04;97554.28;4985829;28;20511;-80
2023/11/06 08:21:25;;;;;;;0.40;0.40;;;;;;;12.40;61.22;97564.88;4986465;28;20042;-80
2023/11/06 08:23:50;;;;;;;0.40;0.40;;;;;;;12.77;60.34;97568.53;4980796;28;20041;-81
2023/11/06 08:26:16;;;;;;;0.40;0.40;;;;;;;13.39;58.92;97567.72;4983508;28;20039;-81
2023/11/06 08:28:42;;;;;;;0.40;0.40;;;;;;;13.68;57.91;97566.78;4986327;28;20341;-82
2023/11/06 08:31:09;;;;;;;0.40;0.40;;;;;;;14.25;55.51;97568.41;4985318;28;20061;-81
2023/11/06 08:33:35;;;;;;;0.40;0.40;;;;;;;13.58;57.60;97582.88;4983900;28;20538;-80
2023/11/06 08:36:13;;;;;;;0.40;0.40;;;;;;;14.38;55.98;97575.50;4986652;28;20040;-80
2023/11/06 08:38:39;;;;;;;0.40;0.40;;;;;;;14.45;55.54;97580.84;4985633;28;20496;-81
2023/11/06 08:41:08;;;;;;;0.40;0.40;;;;;;;15.25;53.61;97575.91;4963972;28;20096;-81
2023/11/06 08:43:40;;;;;;;0.30;0.30;;;;;;;15.40;52.95;97583.84;4985162;28;20062;-80
2023/11/06 08:46:06;;;;;;;0.30;0.30;;;;;;;14.25;54.47;97583.63;4980504;28;20038;-80
2023/11/06 08:48:32;;;;;;;0.30;0.30;;;;;;;14.57;54.29;97583.50;4982436;28;20046;-80
2023/11/06 08:50:57;;;;;;;0.30;0.30;;;;;;;14.89;53.43;97583.31;4983633;28;20046;-81
2023/11/06 08:53:23;;;;;;;0.40;0.40;;;;;;;14.67;54.54;97578.97;4985278;28;20053;-81
2023/11/06 08:55:48;;;;;;;0.30;0.30;;;;;;;14.66;53.92;97593.28;4984849;28;20037;-80
2023/11/06 08:58:17;;;;;;;0.40;0.40;;;;;;;14.40;54.74;97591.59;4984937;28;20042;-80
2023/11/06 09:00:45;;;;;;;0.30;0.30;;;;;;;14.10;55.85;97579.19;4983922;28;20046;-81
2023/11/06 09:03:14;;;;;;;0.40;0.40;;;;;;;15.14;53.43;97603.75;4983172;28;20038;-80
2023/11/06 09:05:40;;;;;;;0.40;0.40;;;;;;;14.80;53.94;97596.78;4984535;28;20050;-80
2023/11/06 09:08:06;;;;;;;0.40;0.40;;;;;;;15.40;52.59;97598.16;4983770;28;20038;-79
2023/11/06 09:10:31;;;;;;;0.35;0.35;;;;;;;14.89;52.86;97594.03;4964975;28;20124;-80
2023/11/06 09:12:59;;;;;;;0.30;0.30;;;;;;;15.13;53.53;97601.94;4984418;28;20049;-80
2023/11/06 09:15:24;;;;;;;;;;;;;;;15.01;53.28;97607.41;4983110;28;20040;-79
2023/11/06 09:17:50;;;;;;;0.40;0.40;;;;;;;14.50;54.29;97608.59;4987658;28;20028;-80
2023/11/06 09:20:15;;;;;;;0.40;0.40;;;;;;;15.10;53.07;97614.53;4981735;28;20072;-81
2023/11/06 09:22:41;;;;;;;0.30;0.30;;;;;;;16.31;50.85;97599.97;4983581;28;20062;-81
2023/11/06 09:25:08;;;;;;;0.40;0.40;;;;;;;15.85;51.50;97614.81;4984555;28;20057;-81
2023/11/06 09:27:36;;;;;;;0.30;0.30;;;;;;;16.57;49.51;97611.31;4983462;28;20758;-81
2023/11/06 09:30:03;;;;;;;0.20;0.20;;;;;;;15.89;50.90;97613.88;4982799;28;20030;-81
2023/11/06 09:32:28;;;;;;;0.40;0.40;;;;;;;16.42;49.65;97616.88;4976111;28;20828;-81
2023/11/06 09:34:55;;;;;;;0.30;0.30;;;;;;;16.05;50.45;97617.31;4981841;28;20049;-80
2023/11/06 09:37:21;;;;;;;0.40;0.40;;;;;;;15.90;51.06;97614.75;4985201;28;20097;-80
2023/11/06 09:39:46;;;;;;;0.30;0.30;;;;;;;15.22;53.16;97619.78;4982307;28;20046;-81
2023/11/06 09:42:13;;;;;;;0.30;0.30;;;;;;;14.93;54.42;97619.97;4982901;28;20407;-81
2023/11/06 09:44:38;;;;;;;0.30;0.30;;;;;;;14.24;56.15;97622.97;4983227;28;20054;-80
2023/11/06 09:47:07;;;;;;;0.30;0.30;;;;;;;13.35;58.33;97635.59;4998320;28;20823;-80
2023/11/06 09:50:01;;;;;;;0.40;0.40;;;;;;;13.47;58.89;97632.03;4983565;28;20088;-80
2023/11/06 09:52:27;;;;;;;0.30;0.30;;;;;;;13.94;57.50;97629.31;4966922;28;20046;-80
2023/11/06 09:54:54;;;;;;;0.50;0.50;;;;;;;14.28;55.72;97629.22;4982365;28;20085;-80
2023/11/06 09:57:19;;;;;;;;;;;;;;;14.73;54.09;97629.94;4998434;28;20035;-81
2023/11/06 09:59:47;;;;;;;0.60;0.60;;;;;;;14.76;54.83;97638.00;4983065;28;20341;-81
2023/11/06 10:02:12;;;;;;;0.40;0.40;;;;;;;16.13;51.04;97636.94;4980526;28;20046;-81
2023/11/06 10:04:38;;;;;;;0.40;0.40;;;;;;;16.63;48.95;97626.53;4984679;28;20042;-82
2023/11/06 10:07:04;;;;;;;0.40;0.40;;;;;;;16.89;47.69;97623.50;4981980;28;20058;-79
2023/11/06 10:09:30;;;;;;;0.30;0.30;;;;;;;15.82;50.74;97646.25;4965499;28;20045;-79
2023/11/06 10:12:14;;;;;;;0.40;0.40;;;;;;;15.54;51.51;97650.94;4989296;28;20120;-80
2023/11/06 10:14:40;;;;;;;0.40;0.40;;;;;;;14.92;52.58;97641.50;4996659;28;20046;-81
2023/11/06 10:17:06;;;;;;;0.40;0.40;;;;;;;16.29;49.38;97628.69;4960950;28;20026;-80
2023/11/06 10:19:33;;;;;;;0.40;0.40;;;;;;;16.41;48.87;97624.06;4980376;28;20101;-80
2023/11/06 10:22:14;;;;;;;0.40;0.40;;;;;;;16.58;47.85;97621.19;4988606;28;20058;-79
2023/11/06 10:24:53;;;;;;;0.40;0.40;;;;;;;17.01;48.07;97623.34;4983137;28;20065;-78
2023/11/06 10:27:27;;;;;;;0.40;0.40;;;;;;;16.89;47.93;97618.13;4982800;28;20038;-78
2023/11/06 10:30:02;;;;;;;0.40;0.40;;;;;;;16.55;47.15;97610.44;4986598;28;20184;-79
2023/11/06 10:32:28;;;;;;;0.40;0.40;;;;;;;16.76;47.37;97616.50;5001995;28;20069;-80
2023/11/06 10:34:54;;;;;;;0.32;0.32;;;;;;;17.21;46.03;97614.97;4985838;28;20042;-80
2023/11/06 10:37:26;;;;;;;0.40;0.40;;;;;;;17.16;46.52;97606.06;4986066;28;20060;-81
2023/11/06 10:39:53;;;;;;;0.40;0.40;;;;;;;17.32;45.87;97610.28;4984588;28;20030;-80
2023/11/06 10:42:21;;;;;;;0.40;0.40;;;;;;;17.85;44.05;97608.53;4985185;28;20050;-80
2023/11/06 10:44:56;;;;;;;0.40;0.40;;;;;;;17.41;45.31;97609.25;4983559;28;20042;-80
2023/11/06 10:47:44;;;;;;;0.40;0.40;;;;;;;18.09;44.22;97607.19;4986758;28;20062;-81
2023/11/06 10:50:20;;;;;;;0.38;0.38;;;;;;;17.49;44.97;97592.97;4999868;28;20046;-81
2023/11/06 10:52:53;;;;;;;0.30;0.30;;;;;;;17.85;44.20;97604.94;4979025;28;20050;-82
2023/11/06 10:55:22;;;;;;;0.40;0.40;;;;;;;18.00;43.69;97599.25;4985566;28;20046;-81
2023/11/06 10:57:50;;;;;;;0.30;0.30;;;;;;;18.80;42.04;97595.00;4985062;28;20110;-81
2023/11/06 11:00:20;;;;;;;0.30;0.30;;;;;;;18.83;42.07;97589.50;4985662;28;20150;-81
2023/11/06 11:03:05;;;;;;;0.40;0.40;;;;;;;18.67;42.06;97587.13;4983583;28;20094;-81
2023/11/06 11:05:32;;;;;;;0.30;0.30;;;;;;;19.52;40.01;97594.22;4969218;28;20050;-82
2023/11/06 11:07:59;;;;;;;;;;;;;;;18.49;42.34;97595.59;4988048;28;20117;-80
2023/11/06 11:10:28;;;;;;;0.40;0.40;;;;;;;18.97;40.60;97590.09;4968201;28;19922;-81
2023/11/06 11:12:57;;;;;;;0.40;0.40;;;;;;;19.13;41.14;97588.84;4986601;28;20096;-81
2023/11/06 11:15:34;;;;;;;0.30;0.30;;;;;;;18.96;40.43;97594.63;5002034;28;20152;-81
2023/11/06 11:18:04;;;;;;;0.40;0.40;;;;;;;19.64;39.88;97588.53;4999935;28;20122;-80
2023/11/06 11:20:48;;;;;;;0.20;0.20;;;;;;;17.89;43.06;97599.47;4987365;28;20034;-81
2023/11/06 11:23:14;;;;;;;0.20;0.20;;;;;;;17.13;44.53;97600.72;4984366;28;20022;-81
2023/11/06 11:25:54;;;;;;;0.20;0.20;;;;;;;15.76;47.07;97588.03;4986430;28;20609;-82
2023/11/06 11:28:20;;;;;;;0.22;0.22;;;;;;;14.72;49.96;97618.31;4985651;28;20076;-80
2023/11/06 11:30:45;;;;;;;0.30;0.30;;;;;;;14.10;51.82;97622.13;4983508;28;20491;-80
2023/11/06 11:33:11;;;;;;;0.30;0.30;;;;;;;14.08;52.01;97622.13;4968833;28;20042;-81
2023/11/06 11:35:36;;;;;;;0.32;0.32;;;;;;;13.98;52.00;97614.97;4985612;28;20042;-80
2023/11/06 11:38:03;;;;;;;0.40;0.40;;;;;;;14.33;51.61;97620.25;4986978;28;20129;-80